sensor_id;sensor_type;location;lat;lon;timestamp;P1;P2;P0
44933;PMS3003;30667;43.614;1.442;2022-11-20T00:01:34;5.00;4.00;1.00
44933;PMS3003;30667;43.614;1.442;2022-11-20T00:03:59;6.00;5.00;1.75
44933;PMS3003;30667;43.614;1.442;2022-11-20T00:06:25;5.00;5.00;2.00
44933;PMS3003;30667;43.614;1.442;2022-11-20T00:08:53;4.80;4.20;1.00
44933;PMS3003;30667;43.614;1.442;2022-11-20T00:11:21;5.40;5.00;2.00
44933;PMS3003;30667;43.614;1.442;2022-11-20T00:13:49;5.00;4.60;2.00
44933;PMS3003;30667;43.614;1.442;2022-11-20T00:16:17;5.40;4.80;1.00
44933;PMS3003;30667;43.614;1.442;2022-11-20T00:18:44;4.80;4.00;1.00
44933;PMS3003;30667;43.614;1.442;2022-11-20T00:21:14;4.00;4.00;1.00
44933;PMS3003;30667;43.614;1.442;2022-11-20T00:23:51;3.20;3.20;0.20
44933;PMS3003;30667;43.614;1.442;2022-11-20T00:26:19;4.60;4.40;1.00
44933;PMS3003;30667;43.614;1.442;2022-11-20T00:28:53;4.00;2.00;0.60
44933;PMS3003;30667;43.614;1.442;2022-11-20T00:31:20;4.20;4.00;1.00
44933;PMS3003;30667;43.614;1.442;2022-11-20T00:33:46;4.00;2.00;0.40
44933;PMS3003;30667;43.614;1.442;2022-11-20T00:36:13;2.00;2.00;0.00
44933;PMS3003;30667;43.614;1.442;2022-11-20T00:38:43;2.00;2.00;1.00
44933;PMS3003;30667;43.614;1.442;2022-11-20T00:41:11;4.40;4.00;1.00
44933;PMS3003;30667;43.614;1.442;2022-11-20T00:43:38;6.00;5.00;1.00
44933;PMS3003;30667;43.614;1.442;2022-11-20T00:46:05;2.50;2.50;1.00
44933;PMS3003;30667;43.614;1.442;2022-11-20T00:48:32;5.80;4.40;0.40
44933;PMS3003;30667;43.614;1.442;2022-11-20T00:50:57;2.00;2.00;1.00
44933;PMS3003;30667;43.614;1.442;2022-11-20T00:53:23;5.00;4.00;0.50
44933;PMS3003;30667;43.614;1.442;2022-11-20T00:55:52;4.00;4.00;1.00
44933;PMS3003;30667;43.614;1.442;2022-11-20T00:58:29;4.20;4.20;1.00
44933;PMS3003;30667;43.614;1.442;2022-11-20T01:01:09;3.60;3.60;1.00
44933;PMS3003;30667;43.614;1.442;2022-11-20T01:03:36;2.00;2.00;0.60
44933;PMS3003;30667;43.614;1.442;2022-11-20T01:06:05;6.20;5.00;1.80
44933;PMS3003;30667;43.614;1.442;2022-11-20T01:08:33;5.20;5.20;2.00
44933;PMS3003;30667;43.614;1.442;2022-11-20T01:11:00;4.00;4.00;1.20
44933;PMS3003;30667;43.614;1.442;2022-11-20T01:13:30;4.80;4.80;1.00
44933;PMS3003;30667;43.614;1.442;2022-11-20T01:16:09;3.20;3.20;1.00
44933;PMS3003;30667;43.614;1.442;2022-11-20T01:18:36;4.80;3.60;1.00
44933;PMS3003;30667;43.614;1.442;2022-11-20T01:21:06;5.00;4.00;1.00
44933;PMS3003;30667;43.614;1.442;2022-11-20T01:23:34;4.40;4.20;1.00
44933;PMS3003;30667;43.614;1.442;2022-11-20T01:26:05;4.60;4.60;1.00
44933;PMS3003;30667;43.614;1.442;2022-11-20T01:28:34;4.00;4.00;1.20
44933;PMS3003;30667;43.614;1.442;2022-11-20T01:31:00;4.00;4.00;1.00
44933;PMS3003;30667;43.614;1.442;2022-11-20T01:33:26;5.00;4.00;1.00
44933;PMS3003;30667;43.614;1.442;2022-11-20T01:35:52;5.00;5.00;1.60
44933;PMS3003;30667;43.614;1.442;2022-11-20T01:38:18;7.40;5.60;1.80
44933;PMS3003;30667;43.614;1.442;2022-11-20T01:40:45;6.80;6.20;2.00
44933;PMS3003;30667;43.614;1.442;2022-11-20T01:43:14;5.75;5.00;2.00
44933;PMS3003;30667;43.614;1.442;2022-11-20T01:48:33;4.00;2.40;1.00
44933;PMS3003;30667;43.614;1.442;2022-11-20T01:54:05;5.00;5.00;1.00
44933;PMS3003;30667;43.614;1.442;2022-11-20T01:56:35;5.00;4.80;1.00
44933;PMS3003;30667;43.614;1.442;2022-11-20T01:59:05;5.00;5.00;2.00
44933;PMS3003;30667;43.614;1.442;2022-11-20T02:01:34;4.80;4.80;1.00
44933;PMS3003;30667;43.614;1.442;2022-11-20T02:03:59;3.00;3.00;1.00
44933;PMS3003;30667;43.614;1.442;2022-11-20T02:06:28;4.40;4.40;1.00
44933;PMS3003;30667;43.614;1.442;2022-11-20T02:08:57;5.00;4.80;1.00
44933;PMS3003;30667;43.614;1.442;2022-11-20T02:11:23;5.00;5.00;1.50
44933;PMS3003;30667;43.614;1.442;2022-11-20T02:13:48;5.00;5.00;1.00
44933;PMS3003;30667;43.614;1.442;2022-11-20T02:18:51;4.00;4.00;1.60
44933;PMS3003;30667;43.614;1.442;2022-11-20T02:24:29;4.40;4.40;2.00
44933;PMS3003;30667;43.614;1.442;2022-11-20T02:27:02;7.00;6.80;2.00
44933;PMS3003;30667;43.614;1.442;2022-11-20T02:29:37;7.60;5.40;1.60
44933;PMS3003;30667;43.614;1.442;2022-11-20T02:32:17;5.40;4.60;1.00
44933;PMS3003;30667;43.614;1.442;2022-11-20T02:34:43;6.80;5.00;2.00
44933;PMS3003;30667;43.614;1.442;2022-11-20T02:37:08;4.00;4.00;2.00
44933;PMS3003;30667;43.614;1.442;2022-11-20T02:39:34;4.00;4.00;1.50
44933;PMS3003;30667;43.614;1.442;2022-11-20T02:42:00;7.00;7.00;2.00
44933;PMS3003;30667;43.614;1.442;2022-11-20T02:44:26;9.80;8.60;4.20
44933;PMS3003;30667;43.614;1.442;2022-11-20T02:46:51;11.25;9.75;4.50
44933;PMS3003;30667;43.614;1.442;2022-11-20T02:49:16;11.50;10.00;5.75
44933;PMS3003;30667;43.614;1.442;2022-11-20T02:51:42;9.25;8.50;5.00
44933;PMS3003;30667;43.614;1.442;2022-11-20T02:54:07;12.75;11.00;7.00
44933;PMS3003;30667;43.614;1.442;2022-11-20T02:56:32;11.25;11.25;6.75
44933;PMS3003;30667;43.614;1.442;2022-11-20T02:58:58;13.25;11.50;7.00
44933;PMS3003;30667;43.614;1.442;2022-11-20T03:01:23;12.50;11.25;5.25
44933;PMS3003;30667;43.614;1.442;2022-11-20T03:03:48;9.00;9.00;4.00
44933;PMS3003;30667;43.614;1.442;2022-11-20T03:06:15;14.75;13.25;8.25
44933;PMS3003;30667;43.614;1.442;2022-11-20T03:08:43;16.40;14.40;9.00
44933;PMS3003;30667;43.614;1.442;2022-11-20T03:11:08;14.25;13.50;7.00
44933;PMS3003;30667;43.614;1.442;2022-11-20T03:13:34;12.00;12.00;6.75
44933;PMS3003;30667;43.614;1.442;2022-11-20T03:16:13;13.40;12.00;6.80
44933;PMS3003;30667;43.614;1.442;2022-11-20T03:18:41;14.40;13.00;7.80
44933;PMS3003;30667;43.614;1.442;2022-11-20T03:21:08;16.80;15.20;8.20
44933;PMS3003;30667;43.614;1.442;2022-11-20T03:23:36;16.00;15.00;8.20
44933;PMS3003;30667;43.614;1.442;2022-11-20T03:26:15;14.40;13.00;8.00
44933;PMS3003;30667;43.614;1.442;2022-11-20T03:28:41;19.00;16.60;9.20
44933;PMS3003;30667;43.614;1.442;2022-11-20T03:31:11;23.40;17.60;9.60
44933;PMS3003;30667;43.614;1.442;2022-11-20T03:33:38;17.80;14.40;7.80
44933;PMS3003;30667;43.614;1.442;2022-11-20T03:36:05;19.00;17.40;8.40
44933;PMS3003;30667;43.614;1.442;2022-11-20T03:38:33;19.00;16.80;11.00
44933;PMS3003;30667;43.614;1.442;2022-11-20T03:41:05;16.20;14.40;7.00
44933;PMS3003;30667;43.614;1.442;2022-11-20T03:43:33;16.80;16.80;8.80
44933;PMS3003;30667;43.614;1.442;2022-11-20T03:45:59;14.00;13.20;7.40
44933;PMS3003;30667;43.614;1.442;2022-11-20T03:48:25;14.60;11.60;7.20
44933;PMS3003;30667;43.614;1.442;2022-11-20T03:50:51;17.00;15.00;8.00
44933;PMS3003;30667;43.614;1.442;2022-11-20T03:53:18;17.40;16.80;9.80
44933;PMS3003;30667;43.614;1.442;2022-11-20T03:55:44;19.80;17.20;10.60
44933;PMS3003;30667;43.614;1.442;2022-11-20T03:58:10;21.75;20.00;12.25
44933;PMS3003;30667;43.614;1.442;2022-11-20T04:00:36;22.00;19.25;12.75
44933;PMS3003;30667;43.614;1.442;2022-11-20T04:03:01;21.00;21.00;13.50
44933;PMS3003;30667;43.614;1.442;2022-11-20T04:05:27;22.80;20.20;12.60
44933;PMS3003;30667;43.614;1.442;2022-11-20T04:07:53;22.50;20.75;12.25
44933;PMS3003;30667;43.614;1.442;2022-11-20T04:10:19;23.25;20.25;14.00
44933;PMS3003;30667;43.614;1.442;2022-11-20T04:12:44;23.25;21.75;14.25
44933;PMS3003;30667;43.614;1.442;2022-11-20T04:15:10;26.00;23.00;15.00
44933;PMS3003;30667;43.614;1.442;2022-11-20T04:17:35;31.25;25.25;15.50
44933;PMS3003;30667;43.614;1.442;2022-11-20T04:20:01;23.00;21.75;13.25
44933;PMS3003;30667;43.614;1.442;2022-11-20T04:22:27;22.80;22.60;14.80
44933;PMS3003;30667;43.614;1.442;2022-11-20T04:24:52;24.25;21.50;15.00
44933;PMS3003;30667;43.614;1.442;2022-11-20T04:27:18;24.75;24.00;17.00
44933;PMS3003;30667;43.614;1.442;2022-11-20T04:29:43;25.50;25.50;19.00
44933;PMS3003;30667;43.614;1.442;2022-11-20T04:32:09;22.50;21.00;14.00
44933;PMS3003;30667;43.614;1.442;2022-11-20T04:34:34;22.50;21.00;12.00
44933;PMS3003;30667;43.614;1.442;2022-11-20T04:37:00;18.00;16.50;10.00
44933;PMS3003;30667;43.614;1.442;2022-11-20T04:39:25;19.75;16.50;9.50
44933;PMS3003;30667;43.614;1.442;2022-11-20T04:41:50;11.50;11.50;5.00
44933;PMS3003;30667;43.614;1.442;2022-11-20T04:44:36;12.80;12.40;7.00
44933;PMS3003;30667;43.614;1.442;2022-11-20T04:47:01;13.75;12.00;8.00
44933;PMS3003;30667;43.614;1.442;2022-11-20T04:49:26;13.50;13.25;8.00
44933;PMS3003;30667;43.614;1.442;2022-11-20T04:51:55;14.50;13.50;7.50
44933;PMS3003;30667;43.614;1.442;2022-11-20T04:54:20;14.40;13.60;7.00
44933;PMS3003;30667;43.614;1.442;2022-11-20T04:56:49;10.50;10.00;7.00
44933;PMS3003;30667;43.614;1.442;2022-11-20T04:59:15;9.20;8.80;5.00
44933;PMS3003;30667;43.614;1.442;2022-11-20T05:01:41;14.00;11.00;5.00
44933;PMS3003;30667;43.614;1.442;2022-11-20T05:04:06;10.50;10.00;5.00
44933;PMS3003;30667;43.614;1.442;2022-11-20T05:06:32;10.50;9.75;6.50
44933;PMS3003;30667;43.614;1.442;2022-11-20T05:08:58;10.25;9.75;6.50
44933;PMS3003;30667;43.614;1.442;2022-11-20T05:11:23;14.75;13.75;7.00
44933;PMS3003;30667;43.614;1.442;2022-11-20T05:13:49;11.50;10.00;5.00
44933;PMS3003;30667;43.614;1.442;2022-11-20T05:16:19;10.60;10.20;5.00
44933;PMS3003;30667;43.614;1.442;2022-11-20T05:18:45;11.00;10.40;7.00
44933;PMS3003;30667;43.614;1.442;2022-11-20T05:21:11;11.80;10.00;5.00
44933;PMS3003;30667;43.614;1.442;2022-11-20T05:23:38;11.00;9.20;5.00
44933;PMS3003;30667;43.614;1.442;2022-11-20T05:26:04;8.50;8.00;4.00
44933;PMS3003;30667;43.614;1.442;2022-11-20T05:28:30;7.60;7.60;4.40
44933;PMS3003;30667;43.614;1.442;2022-11-20T05:31:03;10.80;8.40;4.60
44933;PMS3003;30667;43.614;1.442;2022-11-20T05:33:33;8.20;7.20;2.80
44933;PMS3003;30667;43.614;1.442;2022-11-20T05:35:59;9.80;8.40;4.60
44933;PMS3003;30667;43.614;1.442;2022-11-20T05:38:25;8.60;8.20;2.40
44933;PMS3003;30667;43.614;1.442;2022-11-20T05:40:50;9.75;9.75;4.25
44933;PMS3003;30667;43.614;1.442;2022-11-20T05:43:16;8.00;7.25;3.50
44933;PMS3003;30667;43.614;1.442;2022-11-20T05:45:41;7.50;4.50;1.00
44933;PMS3003;30667;43.614;1.442;2022-11-20T05:48:06;8.00;8.00;3.50
44933;PMS3003;30667;43.614;1.442;2022-11-20T05:50:32;10.50;8.00;4.00
44933;PMS3003;30667;43.614;1.442;2022-11-20T05:52:58;7.00;5.00;2.00
44933;PMS3003;30667;43.614;1.442;2022-11-20T05:55:24;6.60;5.80;2.00
44933;PMS3003;30667;43.614;1.442;2022-11-20T05:57:51;5.00;5.00;1.60
44933;PMS3003;30667;43.614;1.442;2022-11-20T06:00:18;5.80;5.80;1.80
44933;PMS3003;30667;43.614;1.442;2022-11-20T06:02:44;5.00;5.00;1.50
44933;PMS3003;30667;43.614;1.442;2022-11-20T06:05:09;7.00;6.00;2.00
44933;PMS3003;30667;43.614;1.442;2022-11-20T06:07:34;5.50;5.50;2.00
44933;PMS3003;30667;43.614;1.442;2022-11-20T06:10:00;9.00;7.75;3.00
44933;PMS3003;30667;43.614;1.442;2022-11-20T06:12:25;7.00;7.00;2.50
44933;PMS3003;30667;43.614;1.442;2022-11-20T06:14:51;9.75;7.50;2.00
44933;PMS3003;30667;43.614;1.442;2022-11-20T06:17:16;8.00;7.75;4.00
44933;PMS3003;30667;43.614;1.442;2022-11-20T06:19:41;7.50;5.50;2.00
44933;PMS3003;30667;43.614;1.442;2022-11-20T06:22:07;7.75;7.25;2.50
44933;PMS3003;30667;43.614;1.442;2022-11-20T06:24:32;7.00;7.00;2.00
44933;PMS3003;30667;43.614;1.442;2022-11-20T06:26:57;8.25;7.00;3.00
44933;PMS3003;30667;43.614;1.442;2022-11-20T06:29:23;7.50;7.00;2.00
44933;PMS3003;30667;43.614;1.442;2022-11-20T06:31:48;9.50;7.00;2.00
44933;PMS3003;30667;43.614;1.442;2022-11-20T06:34:13;7.50;5.00;2.00
44933;PMS3003;30667;43.614;1.442;2022-11-20T06:36:40;7.80;7.00;2.00
44933;PMS3003;30667;43.614;1.442;2022-11-20T06:39:06;4.25;4.25;1.00
44933;PMS3003;30667;43.614;1.442;2022-11-20T06:41:31;7.00;6.50;2.00
44933;PMS3003;30667;43.614;1.442;2022-11-20T06:43:56;5.00;4.00;1.00
44933;PMS3003;30667;43.614;1.442;2022-11-20T06:46:22;5.00;5.00;2.00
44933;PMS3003;30667;43.614;1.442;2022-11-20T06:48:48;4.75;4.75;1.75
44933;PMS3003;30667;43.614;1.442;2022-11-20T06:51:14;5.40;5.00;1.40
44933;PMS3003;30667;43.614;1.442;2022-11-20T06:53:40;7.40;5.80;1.40
44933;PMS3003;30667;43.614;1.442;2022-11-20T06:56:06;7.75;5.00;1.00
44933;PMS3003;30667;43.614;1.442;2022-11-20T06:58:33;9.60;8.00;2.40
44933;PMS3003;30667;43.614;1.442;2022-11-20T07:01:00;8.40;7.80;4.00
44933;PMS3003;30667;43.614;1.442;2022-11-20T07:03:27;8.00;7.40;2.00
44933;PMS3003;30667;43.614;1.442;2022-11-20T07:05:56;9.00;7.25;4.00
44933;PMS3003;30667;43.614;1.442;2022-11-20T07:08:23;8.00;8.00;4.40
44933;PMS3003;30667;43.614;1.442;2022-11-20T07:10:49;11.00;10.00;5.00
44933;PMS3003;30667;43.614;1.442;2022-11-20T07:13:14;11.00;10.00;5.00
44933;PMS3003;30667;43.614;1.442;2022-11-20T07:15:40;14.00;12.75;7.00
44933;PMS3003;30667;43.614;1.442;2022-11-20T07:18:05;10.25;9.75;5.00
44933;PMS3003;30667;43.614;1.442;2022-11-20T07:20:30;8.25;8.00;4.75
44933;PMS3003;30667;43.614;1.442;2022-11-20T07:22:56;11.00;9.75;5.00
44933;PMS3003;30667;43.614;1.442;2022-11-20T07:25:22;13.00;11.40;6.20
44933;PMS3003;30667;43.614;1.442;2022-11-20T07:27:49;15.00;14.00;7.80
44933;PMS3003;30667;43.614;1.442;2022-11-20T07:30:14;22.00;17.75;10.00
44933;PMS3003;30667;43.614;1.442;2022-11-20T07:32:40;14.00;12.80;7.60
44933;PMS3003;30667;43.614;1.442;2022-11-20T07:35:06;14.00;11.50;7.50
44933;PMS3003;30667;43.614;1.442;2022-11-20T07:37:35;15.00;14.00;7.75
44933;PMS3003;30667;43.614;1.442;2022-11-20T07:40:00;14.20;12.20;6.20
44933;PMS3003;30667;43.614;1.442;2022-11-20T07:42:26;12.75;11.00;4.25
44933;PMS3003;30667;43.614;1.442;2022-11-20T07:44:51;10.50;10.50;4.75
44933;PMS3003;30667;43.614;1.442;2022-11-20T07:47:17;16.00;13.75;6.00
44933;PMS3003;30667;43.614;1.442;2022-11-20T07:49:42;13.50;13.00;5.00
44933;PMS3003;30667;43.614;1.442;2022-11-20T07:52:07;17.25;15.00;6.50
44933;PMS3003;30667;43.614;1.442;2022-11-20T07:54:33;14.50;12.50;7.00
44933;PMS3003;30667;43.614;1.442;2022-11-20T07:56:58;11.75;11.25;5.00
44933;PMS3003;30667;43.614;1.442;2022-11-20T07:59:23;17.25;13.00;5.00
44933;PMS3003;30667;43.614;1.442;2022-11-20T08:01:49;14.00;10.25;4.75
44933;PMS3003;30667;43.614;1.442;2022-11-20T08:04:14;14.50;14.50;7.50
44933;PMS3003;30667;43.614;1.442;2022-11-20T08:06:41;14.00;12.80;7.00
44933;PMS3003;30667;43.614;1.442;2022-11-20T08:09:06;17.00;15.50;7.75
44933;PMS3003;30667;43.614;1.442;2022-11-20T08:11:32;17.25;14.00;6.00
44933;PMS3003;30667;43.614;1.442;2022-11-20T08:14:16;16.60;12.80;5.40
44933;PMS3003;30667;43.614;1.442;2022-11-20T08:16:48;11.00;11.00;6.50
44933;PMS3003;30667;43.614;1.442;2022-11-20T08:19:15;16.20;14.20;7.20
44933;PMS3003;30667;43.614;1.442;2022-11-20T08:21:42;15.60;12.00;5.00
44933;PMS3003;30667;43.614;1.442;2022-11-20T08:24:09;13.00;11.60;4.60
44933;PMS3003;30667;43.614;1.442;2022-11-20T08:26:35;11.60;11.60;6.60
44933;PMS3003;30667;43.614;1.442;2022-11-20T08:29:02;10.00;8.40;4.20
44933;PMS3003;30667;43.614;1.442;2022-11-20T08:31:28;20.40;17.20;8.80
44933;PMS3003;30667;43.614;1.442;2022-11-20T08:33:54;18.40;15.00;8.00
44933;PMS3003;30667;43.614;1.442;2022-11-20T08:36:20;13.75;13.75;7.00
44933;PMS3003;30667;43.614;1.442;2022-11-20T08:38:48;14.60;13.20;7.00
44933;PMS3003;30667;43.614;1.442;2022-11-20T08:41:14;13.00;12.60;6.20
44933;PMS3003;30667;43.614;1.442;2022-11-20T08:43:49;16.00;13.40;7.20
44933;PMS3003;30667;43.614;1.442;2022-11-20T08:46:15;16.60;13.20;5.40
44933;PMS3003;30667;43.614;1.442;2022-11-20T08:48:41;20.00;14.80;7.00
44933;PMS3003;30667;43.614;1.442;2022-11-20T08:51:08;13.40;11.80;5.80
44933;PMS3003;30667;43.614;1.442;2022-11-20T08:53:33;14.00;12.00;5.00
44933;PMS3003;30667;43.614;1.442;2022-11-20T08:55:59;15.75;14.25;5.00
44933;PMS3003;30667;43.614;1.442;2022-11-20T08:58:24;14.50;11.50;5.25
44933;PMS3003;30667;43.614;1.442;2022-11-20T09:00:50;11.20;11.20;5.80
44933;PMS3003;30667;43.614;1.442;2022-11-20T09:03:15;12.50;12.50;5.00
44933;PMS3003;30667;43.614;1.442;2022-11-20T09:05:41;15.00;15.00;7.50
44933;PMS3003;30667;43.614;1.442;2022-11-20T09:08:07;13.80;13.00;6.60
44933;PMS3003;30667;43.614;1.442;2022-11-20T09:10:33;14.00;12.50;7.00
44933;PMS3003;30667;43.614;1.442;2022-11-20T09:12:58;13.25;12.00;5.00
44933;PMS3003;30667;43.614;1.442;2022-11-20T09:15:24;14.00;12.25;7.00
44933;PMS3003;30667;43.614;1.442;2022-11-20T09:17:53;16.20;14.40;6.60
44933;PMS3003;30667;43.614;1.442;2022-11-20T09:20:20;15.00;11.60;5.00
44933;PMS3003;30667;43.614;1.442;2022-11-20T09:22:46;13.00;11.00;5.00
44933;PMS3003;30667;43.614;1.442;2022-11-20T09:25:11;11.75;11.50;7.00
44933;PMS3003;30667;43.614;1.442;2022-11-20T09:27:37;12.00;11.50;6.50
44933;PMS3003;30667;43.614;1.442;2022-11-20T09:30:03;13.75;13.25;7.25
44933;PMS3003;30667;43.614;1.442;2022-11-20T09:32:29;14.40;13.60;7.00
44933;PMS3003;30667;43.614;1.442;2022-11-20T09:34:54;14.75;13.75;7.25
44933;PMS3003;30667;43.614;1.442;2022-11-20T09:37:19;13.00;11.75;7.50
44933;PMS3003;30667;43.614;1.442;2022-11-20T09:39:45;12.00;12.00;5.75
44933;PMS3003;30667;43.614;1.442;2022-11-20T09:42:17;15.25;14.25;7.75
44933;PMS3003;30667;43.614;1.442;2022-11-20T09:45:15;16.80;15.40;6.80
44933;PMS3003;30667;43.614;1.442;2022-11-20T09:48:11;16.80;14.60;7.00
44933;PMS3003;30667;43.614;1.442;2022-11-20T09:56:19;13.40;11.00;5.40
44933;PMS3003;30667;43.614;1.442;2022-11-20T09:58:50;12.60;12.60;6.80
44933;PMS3003;30667;43.614;1.442;2022-11-20T10:01:20;16.40;12.80;6.40
44933;PMS3003;30667;43.614;1.442;2022-11-20T10:03:50;15.20;13.80;7.80
44933;PMS3003;30667;43.614;1.442;2022-11-20T10:06:17;13.00;11.00;5.00
44933;PMS3003;30667;43.614;1.442;2022-11-20T10:08:45;12.00;9.40;4.40
44933;PMS3003;30667;43.614;1.442;2022-11-20T10:30:28;20.00;17.20;8.00
44933;PMS3003;30667;43.614;1.442;2022-11-20T10:33:00;11.40;10.60;6.00
44933;PMS3003;30667;43.614;1.442;2022-11-20T10:38:18;13.60;13.00;6.00
44933;PMS3003;30667;43.614;1.442;2022-11-20T10:40:46;14.00;12.00;7.00
44933;PMS3003;30667;43.614;1.442;2022-11-20T10:43:51;13.60;13.60;7.80
44933;PMS3003;30667;43.614;1.442;2022-11-20T10:46:40;16.60;15.20;9.00
44933;PMS3003;30667;43.614;1.442;2022-11-20T10:49:15;15.00;15.00;9.00
44933;PMS3003;30667;43.614;1.442;2022-11-20T10:56:57;16.60;16.00;9.20
44933;PMS3003;30667;43.614;1.442;2022-11-20T11:02:24;20.40;16.80;9.20
44933;PMS3003;30667;43.614;1.442;2022-11-20T11:04:58;16.40;14.80;9.00
44933;PMS3003;30667;43.614;1.442;2022-11-20T11:07:38;15.20;14.60;8.80
44933;PMS3003;30667;43.614;1.442;2022-11-20T11:10:15;13.00;11.60;6.00
44933;PMS3003;30667;43.614;1.442;2022-11-20T11:12:44;14.00;12.00;6.00
44933;PMS3003;30667;43.614;1.442;2022-11-20T11:15:28;18.80;14.80;8.20
44933;PMS3003;30667;43.614;1.442;2022-11-20T11:18:02;15.60;14.60;6.20
44933;PMS3003;30667;43.614;1.442;2022-11-20T11:20:27;13.00;12.00;7.00
44933;PMS3003;30667;43.614;1.442;2022-11-20T11:22:55;15.80;13.60;8.40
44933;PMS3003;30667;43.614;1.442;2022-11-20T11:27:54;15.40;13.80;7.80
44933;PMS3003;30667;43.614;1.442;2022-11-20T11:30:22;16.00;15.40;8.60
44933;PMS3003;30667;43.614;1.442;2022-11-20T11:32:49;13.20;10.80;6.40
44933;PMS3003;30667;43.614;1.442;2022-11-20T11:35:21;11.25;10.25;6.00
44933;PMS3003;30667;43.614;1.442;2022-11-20T11:37:52;13.80;12.80;7.60
44933;PMS3003;30667;43.614;1.442;2022-11-20T11:40:33;13.20;12.80;6.00
44933;PMS3003;30667;43.614;1.442;2022-11-20T11:43:04;11.60;10.60;5.60
44933;PMS3003;30667;43.614;1.442;2022-11-20T11:45:52;11.00;9.40;6.00
44933;PMS3003;30667;43.614;1.442;2022-11-20T11:48:20;12.00;10.80;6.00
44933;PMS3003;30667;43.614;1.442;2022-11-20T11:50:49;10.60;10.00;5.40
44933;PMS3003;30667;43.614;1.442;2022-11-20T11:53:17;14.00;10.00;5.00
44933;PMS3003;30667;43.614;1.442;2022-11-20T11:55:50;13.20;12.00;6.40
44933;PMS3003;30667;43.614;1.442;2022-11-20T12:03:59;13.60;13.00;7.20
44933;PMS3003;30667;43.614;1.442;2022-11-20T12:06:51;13.00;12.00;7.60
44933;PMS3003;30667;43.614;1.442;2022-11-20T12:09:24;13.20;11.20;6.00
44933;PMS3003;30667;43.614;1.442;2022-11-20T12:12:08;11.60;10.60;5.00
44933;PMS3003;30667;43.614;1.442;2022-11-20T12:14:40;15.20;12.20;6.40
44933;PMS3003;30667;43.614;1.442;2022-11-20T12:17:12;13.20;13.20;6.00
44933;PMS3003;30667;43.614;1.442;2022-11-20T12:19:39;12.20;10.00;5.00
44933;PMS3003;30667;43.614;1.442;2022-11-20T12:27:14;12.80;10.00;5.40
44933;PMS3003;30667;43.614;1.442;2022-11-20T12:30:18;9.60;7.80;4.60
44933;PMS3003;30667;43.614;1.442;2022-11-20T12:33:08;11.80;10.20;5.20
44933;PMS3003;30667;43.614;1.442;2022-11-20T12:36:06;11.40;10.00;6.00
44933;PMS3003;30667;43.614;1.442;2022-11-20T12:52:57;11.80;9.20;4.00
44933;PMS3003;30667;43.614;1.442;2022-11-20T13:07:05;8.40;8.40;5.00
44933;PMS3003;30667;43.614;1.442;2022-11-20T13:09:35;7.40;7.40;2.00
44933;PMS3003;30667;43.614;1.442;2022-11-20T13:17:55;7.80;5.20;2.00
44933;PMS3003;30667;43.614;1.442;2022-11-20T13:20:24;5.00;5.00;2.00
44933;PMS3003;30667;43.614;1.442;2022-11-20T13:22:53;6.00;5.00;1.60
44933;PMS3003;30667;43.614;1.442;2022-11-20T13:25:30;4.40;4.40;1.00
44933;PMS3003;30667;43.614;1.442;2022-11-20T13:30:37;3.00;3.00;1.00
44933;PMS3003;30667;43.614;1.442;2022-11-20T13:33:34;3.00;2.00;0.00
44933;PMS3003;30667;43.614;1.442;2022-11-20T13:36:02;3.80;3.80;0.00
44933;PMS3003;30667;43.614;1.442;2022-11-20T13:38:44;2.00;2.00;0.00
44933;PMS3003;30667;43.614;1.442;2022-11-20T13:41:23;5.00;2.80;1.00
44933;PMS3003;30667;43.614;1.442;2022-11-20T13:43:59;6.80;6.00;1.80
44933;PMS3003;30667;43.614;1.442;2022-11-20T13:46:41;25.20;19.40;10.60
44933;PMS3003;30667;43.614;1.442;2022-11-20T13:49:10;103.00;78.40;43.20
44933;PMS3003;30667;43.614;1.442;2022-11-20T13:51:44;19.00;17.40;9.00
44933;PMS3003;30667;43.614;1.442;2022-11-20T14:02:18;6.20;5.60;2.00
44933;PMS3003;30667;43.614;1.442;2022-11-20T14:04:47;5.60;4.60;1.40
44933;PMS3003;30667;43.614;1.442;2022-11-20T14:07:15;10.00;6.80;3.60
44933;PMS3003;30667;43.614;1.442;2022-11-20T14:09:53;7.80;7.00;3.40
44933;PMS3003;30667;43.614;1.442;2022-11-20T14:12:22;10.00;8.60;3.40
44933;PMS3003;30667;43.614;1.442;2022-11-20T14:14:52;6.40;6.40;2.40
44933;PMS3003;30667;43.614;1.442;2022-11-20T14:19:54;8.00;6.40;3.00
44933;PMS3003;30667;43.614;1.442;2022-11-20T14:22:25;6.00;5.60;2.20
44933;PMS3003;30667;43.614;1.442;2022-11-20T14:27:29;6.00;5.40;1.00
44933;PMS3003;30667;43.614;1.442;2022-11-20T14:29:57;5.60;5.60;1.80
44933;PMS3003;30667;43.614;1.442;2022-11-20T14:32:26;4.00;4.00;1.00
44933;PMS3003;30667;43.614;1.442;2022-11-20T14:34:54;5.80;5.00;2.00
44933;PMS3003;30667;43.614;1.442;2022-11-20T14:37:27;6.60;6.00;1.60
44933;PMS3003;30667;43.614;1.442;2022-11-20T14:39:58;5.60;4.00;1.00
44933;PMS3003;30667;43.614;1.442;2022-11-20T14:42:27;2.75;2.75;1.00
44933;PMS3003;30667;43.614;1.442;2022-11-20T14:44:57;4.60;2.00;0.00
44933;PMS3003;30667;43.614;1.442;2022-11-20T14:47:25;5.00;2.80;1.00
44933;PMS3003;30667;43.614;1.442;2022-11-20T14:49:54;6.40;3.80;1.00
44933;PMS3003;30667;43.614;1.442;2022-11-20T14:52:22;8.20;3.40;1.00
44933;PMS3003;30667;43.614;1.442;2022-11-20T14:54:53;3.00;2.80;0.40
44933;PMS3003;30667;43.614;1.442;2022-11-20T14:57:37;3.40;3.00;1.00
44933;PMS3003;30667;43.614;1.442;2022-11-20T15:00:04;3.40;2.80;1.00
44933;PMS3003;30667;43.614;1.442;2022-11-20T15:02:32;5.40;4.60;1.00
44933;PMS3003;30667;43.614;1.442;2022-11-20T15:05:00;5.00;3.40;0.20
44933;PMS3003;30667;43.614;1.442;2022-11-20T15:07:32;4.20;3.00;0.80
44933;PMS3003;30667;43.614;1.442;2022-11-20T15:10:07;3.00;2.60;0.00
44933;PMS3003;30667;43.614;1.442;2022-11-20T15:12:40;9.00;3.40;0.00
44933;PMS3003;30667;43.614;1.442;2022-11-20T15:15:12;2.80;2.80;0.00
44933;PMS3003;30667;43.614;1.442;2022-11-20T15:17:42;5.80;5.00;0.40
44933;PMS3003;30667;43.614;1.442;2022-11-20T15:20:12;3.00;2.75;0.00
44933;PMS3003;30667;43.614;1.442;2022-11-20T15:22:40;4.60;3.40;1.00
44933;PMS3003;30667;43.614;1.442;2022-11-20T15:25:14;4.75;3.00;0.00
44933;PMS3003;30667;43.614;1.442;2022-11-20T15:27:42;7.40;5.00;0.00
44933;PMS3003;30667;43.614;1.442;2022-11-20T15:30:16;10.00;5.80;1.20
44933;PMS3003;30667;43.614;1.442;2022-11-20T15:32:45;5.20;4.20;1.00
44933;PMS3003;30667;43.614;1.442;2022-11-20T15:35:11;6.80;5.00;1.00
44933;PMS3003;30667;43.614;1.442;2022-11-20T15:37:38;5.60;3.00;0.20
44933;PMS3003;30667;43.614;1.442;2022-11-20T15:40:04;4.75;3.50;1.00
44933;PMS3003;30667;43.614;1.442;2022-11-20T15:42:31;3.40;3.00;0.80
44933;PMS3003;30667;43.614;1.442;2022-11-20T15:44:57;5.00;3.40;1.00
44933;PMS3003;30667;43.614;1.442;2022-11-20T15:47:24;6.25;3.00;0.00
44933;PMS3003;30667;43.614;1.442;2022-11-20T15:49:52;5.20;3.00;0.00
44933;PMS3003;30667;43.614;1.442;2022-11-20T15:52:18;5.00;3.00;0.00
44933;PMS3003;30667;43.614;1.442;2022-11-20T15:54:43;6.25;3.00;1.00
44933;PMS3003;30667;43.614;1.442;2022-11-20T15:57:09;2.75;2.75;0.00
44933;PMS3003;30667;43.614;1.442;2022-11-20T15:59:34;5.00;3.50;0.25
44933;PMS3003;30667;43.614;1.442;2022-11-20T16:02:08;7.00;4.20;1.00
44933;PMS3003;30667;43.614;1.442;2022-11-20T16:04:35;4.60;2.80;0.20
44933;PMS3003;30667;43.614;1.442;2022-11-20T16:07:00;5.50;3.00;0.00